Dobrodošli na spletni strani vremenske postaje Senovo. Vse informacije so informativnega značaja, saj vremenska postaja ni del državne mreže meteoroloških postaj. AKTUALNIH OBVESTIL NI.


Sneg/Led Od: 23-02-2018 00:00 Do: 23:59 Opozorilo za: Sneg/Led Stopnja: Rumena info button

Pogled proti Armezu več informacij Pogled proti Armezu


Lisca več informacij Lisca


Radar strel več informacij blitzortung!


opozorilo za sneg/led več informacij rain snow radar


Obiščite še:

Template documentation
and downloads

And another site



Weather Underground, zgodovina - Tekstovno

Dnevni povzetek za Februar 1, 2018 Enote:  Metrično    Angleško   Obe
« Predhodni Dan
Naslednji Dan »
Dnevni Tedenski Mesečni Letni Po meri
  Višja: Nižja: Povprečje:
Temperatura: -17.8 °C -16.2 °C -13.4 °C
Točka rosišča: -17.8 °C -17.3 °C -15.7 °C
Vlažnost: Humidity % 55 % 76 %
Hitrost vetra: 0 km/h 0 km/h 6.8 km/h
Sunki vetra: 0 km/h - -
Veter:- - WSW
Zračni tlak: 0 hPa 33924.3 hPa -
Padavine: 58.42 mm    
Historical Graphs
 
 
Tabelarni podarki za Februar 1, 2018
Čas Temperatura Točka rosišča Zračni tlak Veter Hitrost vetra Sunki vetra Vlažnost Intenziteta padavin (urna)
-17.8 °C -17.8 °C 0 hPa Calm     Humidity % 0 mm
00:04 -14 °C -15.6 °C 34235.8 hPa SSW 10.9 km/h 22 km/h 82 % 0 mm
00:09 -13.9 °C -15.5 °C 34235.8 hPa SSW 9 km/h 16.3 km/h 82 % 0 mm
00:14 -13.9 °C -15.5 °C 34198.6 hPa SSW 9.7 km/h 16.3 km/h 82 % 0 mm
00:19 -13.9 °C -15.6 °C 34198.6 hPa SSW 9.7 km/h 20.3 km/h 81 % 0 mm
00:24 -13.9 °C -15.5 °C 34198.6 hPa SSW 8.9 km/h 20.3 km/h 82 % 0 mm
00:29 -14 °C -15.6 °C 34198.6 hPa SSW 8 km/h 15 km/h 82 % 0 mm
00:34 -13.9 °C -15.5 °C 34198.6 hPa SSW 6.3 km/h 12.7 km/h 82 % 0 mm
00:39 -13.9 °C -15.5 °C 34198.6 hPa South 3.9 km/h 8 km/h 82 % 0 mm
00:44 -13.9 °C -15.5 °C 34198.6 hPa SSW 4.3 km/h 11.1 km/h 82 % 0 mm
00:49 -14 °C -15.6 °C 34198.6 hPa SSW 6.3 km/h 14 km/h 82 % 0 mm
00:54 -14 °C -15.6 °C 34198.6 hPa South 6.8 km/h 14 km/h 82 % 0 mm
00:59 -14 °C -15.6 °C 34164.7 hPa SSE 6.3 km/h 9.8 km/h 82 % 0 mm
01:04 -14 °C -15.6 °C 34164.7 hPa South 4.7 km/h 14.5 km/h 82 % 0 mm
01:09 -14 °C -15.6 °C 34164.7 hPa South 6.4 km/h 14.5 km/h 82 % 0 mm
01:14 -14 °C -15.6 °C 34164.7 hPa South 9 km/h 16.3 km/h 82 % 0 mm
01:19 -14.1 °C -15.7 °C 34164.7 hPa South 6.4 km/h 16.3 km/h 82 % 0 mm
01:24 -14.1 °C -15.7 °C 34164.7 hPa South 5 km/h 11.1 km/h 82 % 0 mm
01:29 -14 °C -15.6 °C 34164.7 hPa South 4.7 km/h 11.1 km/h 82 % 0 mm
01:34 -14 °C -15.6 °C 34164.7 hPa South 6.8 km/h 16.3 km/h 82 % 0 mm
01:39 -14 °C -15.6 °C 34164.7 hPa South 8.5 km/h 16.3 km/h 82 % 0 mm
01:44 -14 °C -15.6 °C 34198.6 hPa South 6.4 km/h 12.2 km/h 82 % 0 mm
01:49 -13.9 °C -15.5 °C 34198.6 hPa SSW 6.8 km/h 15.6 km/h 82 % 0 mm
01:54 -14 °C -15.6 °C 34198.6 hPa SSW 7.2 km/h 15.6 km/h 82 % 0 mm
01:59 -14 °C -15.6 °C 34164.7 hPa SSW 6 km/h 10.3 km/h 82 % 0 mm
02:04 -14.1 °C -15.7 °C 34164.7 hPa South 4.3 km/h 10.3 km/h 82 % 0 mm
02:09 -14.2 °C -15.7 °C 34164.7 hPa SSE 5 km/h 10.3 km/h 82 % 0 mm
02:14 -14.2 °C -15.8 °C 34164.7 hPa SSE 6.4 km/h 10.3 km/h 82 % 0 mm
02:19 -14.2 °C -15.8 °C 34164.7 hPa South 6.3 km/h 10.3 km/h 82 % 0 mm
02:24 -14.3 °C -15.9 °C 34164.7 hPa South 6 km/h 9.8 km/h 82 % 0 mm
02:29 -14.3 °C -15.9 °C 34130.9 hPa South 5 km/h 10.3 km/h 82 % 0 mm
02:34 -14.3 °C -15.9 °C 34130.9 hPa South 5 km/h 10.3 km/h 82 % 0 mm
02:39 -14.3 °C -15.9 °C 34130.9 hPa South 5 km/h 8.9 km/h 82 % 0 mm
02:44 -14.3 °C -15.9 °C 34130.9 hPa South 4.7 km/h 8 km/h 82 % 0 mm
02:49 -14.3 °C -15.8 °C 34130.9 hPa SSW 4.3 km/h 8 km/h 83 % 0 mm
02:54 -14.3 °C -15.8 °C 34130.9 hPa SSE 1.6 km/h 8 km/h 83 % 0 mm
02:59 -14.4 °C -15.9 °C 34130.9 hPa SSW 2.1 km/h 8.9 km/h 83 % 0 mm
03:04 -14.4 °C -15.9 °C 34130.9 hPa SSW 2.1 km/h 8.9 km/h 83 % 0 mm
03:09 -14.4 °C -15.9 °C 34130.9 hPa SW 1.6 km/h 5.6 km/h 83 % 0 mm
03:14 -14.5 °C -16 °C 34097 hPa WSW 3.4 km/h 8.9 km/h 83 % 0 mm
03:19 -14.6 °C -16.1 °C 34097 hPa WNW 5.1 km/h 9.3 km/h 83 % 0 mm
03:24 -14.7 °C -16.2 °C 34097 hPa WNW 4.7 km/h 9.3 km/h 83 % 0 mm
03:29 -14.8 °C -16.3 °C 34130.9 hPa West 1.6 km/h 5.1 km/h 83 % 0 mm
03:34 -14.8 °C -16.3 °C 34130.9 hPa WSW 0.5 km/h 3.4 km/h 83 % 0 mm
03:39 -14.8 °C -16.3 °C 34130.9 hPa SSW 0.5 km/h 3.4 km/h 83 % 0 mm
03:44 -14.9 °C -16.3 °C 34063.2 hPa Calm     83 % 0 mm
03:49 -14.9 °C -16.3 °C 34063.2 hPa Calm   9.3 km/h 84 % 0 mm
03:54 -14.9 °C -16.3 °C 34063.2 hPa SE 3.7 km/h 18.7 km/h 84 % 0 mm
03:59 -14.8 °C -16.2 °C 34063.2 hPa SE 8.2 km/h 18.7 km/h 84 % 0 mm
04:04 -14.7 °C -16.1 °C 34063.2 hPa SE 5.1 km/h 14.5 km/h 84 % 0 mm
04:09 -14.7 °C -16 °C 34063.2 hPa SW 2.1 km/h 8 km/h 85 % 0 mm
04:14 -14.7 °C -15.9 °C 34097 hPa West 2.9 km/h 8 km/h 85 % 0 mm
04:19 -14.8 °C -16.1 °C 34097 hPa SW 3.1 km/h 6.9 km/h 85 % 0 mm
04:24 -14.8 °C -16.1 °C 34097 hPa SSE 1.3 km/h 6.9 km/h 85 % 0 mm
04:29 -14.8 °C -16.1 °C 34097 hPa SSW 2.1 km/h 8.9 km/h 85 % 0 mm
04:34 -14.8 °C -16.1 °C 34097 hPa SSW 5.5 km/h 8.9 km/h 85 % 0 mm
04:39 -15 °C -16.3 °C 34097 hPa South 6.3 km/h 12.2 km/h 85 % 0 mm
04:44 -15.1 °C -16.4 °C 34097 hPa WSW 5 km/h 12.2 km/h 85 % 0 mm
04:49 -15.2 °C -16.5 °C 34097 hPa NW 5.1 km/h 8.9 km/h 85 % 0 mm
04:54 -15.3 °C -16.6 °C 34097 hPa NW 5.5 km/h 8 km/h 85 % 0 mm
04:59 -15.3 °C -16.6 °C 34063.2 hPa NW 4.7 km/h 7.6 km/h 85 % 0 mm
05:04 -15.4 °C -16.7 °C 34063.2 hPa WNW 2.6 km/h 7.6 km/h 85 % 0 mm
05:09 -15.5 °C -16.8 °C 34063.2 hPa NNW 0.8 km/h 5.1 km/h 85 % 0 mm
05:14 -15.6 °C -16.8 °C 34063.2 hPa SSE 4.2 km/h 11.1 km/h 85 % 0 mm
05:19 -15.6 °C -16.8 °C 34063.2 hPa South 6 km/h 11.1 km/h 85 % 0 mm
05:24 -15.6 °C -16.8 °C 34063.2 hPa WNW 4.3 km/h 9.8 km/h 85 % 0 mm
05:29 -15.7 °C -16.8 °C 34063.2 hPa NNW 2.9 km/h 6.9 km/h 86 % 0 mm
05:34 -15.7 °C -16.8 °C 34063.2 hPa NNW 2.1 km/h 8.9 km/h 86 % 0 mm
05:39 -15.7 °C -16.9 °C 34063.2 hPa NW 3.9 km/h 9.8 km/h 86 % 0 mm
05:44 -15.8 °C -16.9 °C 34029.3 hPa NW 4.2 km/h 9.8 km/h 86 % 0 mm
05:49 -15.8 °C -16.9 °C 34029.3 hPa WNW 1.3 km/h 6.9 km/h 86 % 0 mm
05:54 -15.9 °C -17.1 °C 34029.3 hPa NNW 1 km/h 6.4 km/h 86 % 0 mm
05:59 -15.9 °C -17.1 °C 34029.3 hPa NNW 1.3 km/h 6.4 km/h 86 % 0 mm
06:04 -16 °C -17.2 °C 34029.3 hPa NNW 1 km/h 6.4 km/h 86 % 0 mm
06:09 -16.1 °C -17.2 °C 34029.3 hPa NW 0.3 km/h 6.4 km/h 86 % 0 mm
06:14 -16.1 °C -17.3 °C 34029.3 hPa Calm     86 % 0 mm
06:19 -16.2 °C -17.3 °C 34029.3 hPa WNW 0.3 km/h 5.1 km/h 87 % 0 mm
06:24 -16.2 °C -17.3 °C 34029.3 hPa West 2.1 km/h 6.9 km/h 87 % 0 mm
06:29 -16.2 °C -17.3 °C 34029.3 hPa WNW 2.9 km/h 9.8 km/h 87 % 0 mm
06:34 -16.2 °C -17.3 °C 34029.3 hPa NW 2.3 km/h 9.8 km/h 87 % 0 mm
06:39 -16.2 °C -17.3 °C 34029.3 hPa WNW 1.6 km/h 5.1 km/h 87 % 0 mm
06:44 -16.2 °C -17.3 °C 34029.3 hPa WNW 0.8 km/h 5.6 km/h 87 % 0 mm
06:49 -16.2 °C -17.2 °C 34029.3 hPa WNW 0.5 km/h 5.6 km/h 88 % 0 mm
06:54 -16.1 °C -17.2 °C 34029.3 hPa WNW 0.3 km/h 3.4 km/h 87 % 0 mm
06:59 -16.1 °C -17.1 °C 34029.3 hPa Calm     88 % 0 mm
07:04 -16.1 °C -17.1 °C 34029.3 hPa NW 1.8 km/h 8 km/h 88 % 0 mm
07:09 -15.9 °C -16.9 °C 34029.3 hPa NW 4.2 km/h 9.3 km/h 88 % 0 mm
07:14 -15.9 °C -16.9 °C 34029.3 hPa NW 2.1 km/h 9.3 km/h 88 % 0 mm
07:19 -15.9 °C -16.9 °C 34029.3 hPa NNW 0.3 km/h 6.4 km/h 88 % 0 mm
07:24 -15.9 °C -16.9 °C 34029.3 hPa NNW 1.8 km/h 7.6 km/h 88 % 0 mm
07:29 -15.7 °C -16.6 °C 34029.3 hPa NW 2.6 km/h 7.6 km/h 89 % 0 mm
07:34 -15.7 °C -16.6 °C 34029.3 hPa NW 1 km/h 6.4 km/h 89 % 0 mm
07:39 -15.6 °C -16.5 °C 34029.3 hPa Calm     89 % 0 mm
07:44 -15.5 °C -16.4 °C 33992.1 hPa Calm     89 % 0 mm
07:49 -15.4 °C -16.3 °C 33992.1 hPa Calm     89 % 0 mm
07:54 -15.4 °C -16.2 °C 33992.1 hPa Calm     90 % 0 mm
07:59 -15.4 °C -16.2 °C 33992.1 hPa Calm     90 % 0 mm
08:05 -15.3 °C -16.2 °C 33992.1 hPa Calm     90 % 0 mm
08:10 -15.2 °C -16.1 °C 34029.3 hPa Calm     90 % 0 mm
08:15 -15.2 °C -15.9 °C 34029.3 hPa Calm     91 % 0 mm
08:20 -15.1 °C -15.8 °C 34029.3 hPa Calm     91 % 0 mm
08:25 -15 °C -15.7 °C 34029.3 hPa Calm     91 % 0 mm
08:30 -14.8 °C -15.6 °C 34029.3 hPa WNW 1 km/h 7.6 km/h 91 % 0 mm
08:35 -14.6 °C -15.3 °C 34029.3 hPa NW 1.8 km/h 8 km/h 92 % 0 mm
08:40 -14.3 °C -15 °C 34029.3 hPa NNW 1.6 km/h 8 km/h 92 % 0 mm
08:45 -14 °C -14.7 °C 34029.3 hPa NW 2.6 km/h 9.3 km/h 92 % 0 mm
08:50 -13.6 °C -14.3 °C 34029.3 hPa WNW 5 km/h 12.7 km/h 92 % 0 mm
08:55 -13.4 °C -14 °C 33992.1 hPa West 4.7 km/h 12.7 km/h 93 % 0 mm
09:00 -13.2 °C -13.9 °C 33992.1 hPa WNW 3.4 km/h 9.3 km/h 92 % 0 mm
09:05 -13.1 °C -13.7 °C 33992.1 hPa West 3.9 km/h 10.3 km/h 93 % 0 mm
09:10 -12.9 °C -13.6 °C 33992.1 hPa West 3.9 km/h 10.3 km/h 93 % 0 mm
09:15 -12.8 °C -13.4 °C 33992.1 hPa WSW 5.6 km/h 16.3 km/h 93 % 0 mm
09:20 -12.7 °C -13.3 °C 33992.1 hPa WSW 8.9 km/h 16.3 km/h 93 % 0 mm
09:25 -12.7 °C -13.3 °C 33992.1 hPa SW 8.2 km/h 15.6 km/h 93 % 0 mm
09:30 -12.6 °C -13.2 °C 33992.1 hPa SW 7.7 km/h 18.7 km/h 93 % 0 mm
09:35 -12.6 °C -13.2 °C 33992.1 hPa SW 10.3 km/h 20.3 km/h 92 % 0 mm
09:41 -12.5 °C -13.2 °C 34029.3 hPa SW 12.7 km/h 20.3 km/h 92 % 0 mm
09:46 -12.5 °C -13.2 °C 34029.3 hPa SW 11.4 km/h 19.2 km/h 92 % 0 mm
09:51 -12.4 °C -13.2 °C 34029.3 hPa SW 10.6 km/h 19.2 km/h 91 % 0 mm
09:56 -12.4 °C -13.2 °C 34029.3 hPa SW 11.4 km/h 20.3 km/h 91 % 0 mm
10:01 -12.3 °C -13.2 °C 34029.3 hPa SW 12.9 km/h 25.4 km/h 90 % 0 mm
10:06 -12.3 °C -13.3 °C 34029.3 hPa SW 14.5 km/h 26.7 km/h 89 % 0 mm
10:11 -12.3 °C -13.4 °C 34063.2 hPa SW 15 km/h 27.2 km/h 88 % 0 mm
10:16 -12.3 °C -13.3 °C 34063.2 hPa SW 13.2 km/h 27.2 km/h 88 % 0 mm
10:21 -12.3 °C -13.5 °C 34063.2 hPa SW 10.6 km/h 22.5 km/h 86 % 0 mm
10:26 -12.2 °C -13.6 °C 33992.1 hPa SW 12.4 km/h 34.8 km/h 85 % 0 mm
10:31 -12.2 °C -13.7 °C 33992.1 hPa SW 13.5 km/h 34.8 km/h 84 % 0 mm
10:36 -12.2 °C -13.7 °C 33992.1 hPa SW 11.6 km/h 20.3 km/h 84 % 0 mm
10:41 -12.2 °C -13.8 °C 34029.3 hPa SW 12.4 km/h 31.4 km/h 83 % 0 mm
10:46 -12.2 °C -13.8 °C 34029.3 hPa SW 13.7 km/h 31.4 km/h 82 % 0 mm
10:51 -12.2 °C -13.8 °C 34029.3 hPa WSW 13.5 km/h 26.7 km/h 82 % 0 mm
10:56 -12.2 °C -13.9 °C 33992.1 hPa SW 12.2 km/h 26.7 km/h 81 % 0 mm
11:02 -12.2 °C -13.9 °C 33992.1 hPa SW 10.9 km/h 20.9 km/h 81 % 0 mm
11:07 -12.2 °C -14 °C 33992.1 hPa SW 12.9 km/h 23.8 km/h 80 % 0 mm
11:12 -12.1 °C -13.9 °C 33992.1 hPa SW 14 km/h 27.7 km/h 80 % 0 mm
11:17 -12.1 °C -14 °C 33992.1 hPa SW 12.4 km/h 27.7 km/h 79 % 0 mm
11:22 -12.1 °C -14 °C 33992.1 hPa SW 12.4 km/h 22.5 km/h 79 % 0 mm
11:27 -12.1 °C -14.1 °C 34029.3 hPa SW 14 km/h 23.8 km/h 78 % 0 mm
11:32 -12 °C -14.1 °C 34029.3 hPa SW 14 km/h 25.4 km/h 78 % 0 mm
11:37 -11.9 °C -14.1 °C 34029.3 hPa SW 11.6 km/h 25.4 km/h 77 % 0 mm
11:42 -11.8 °C -14 °C 34029.3 hPa SSW 12.9 km/h 27.2 km/h 77 % 0 mm
11:47 -11.6 °C -13.8 °C 34029.3 hPa SSW 16.1 km/h 32.3 km/h 76 % 0 mm
11:52 -11.3 °C -13.7 °C 34029.3 hPa SSW 19.6 km/h 32.3 km/h 75 % 0 mm
11:57 -11.1 °C -13.6 °C 34029.3 hPa SSW 22.2 km/h 46.8 km/h 74 % 0 mm
12:02 -11.1 °C -13.7 °C 34029.3 hPa SW 23 km/h 46.8 km/h 73 % 0 mm
12:07 -11.2 °C -13.9 °C 34029.3 hPa SW 18.8 km/h 37.5 km/h 72 % 0 mm
12:12 -11.2 °C -14.1 °C 34029.3 hPa SW 15.8 km/h 33.2 km/h 71 % 0 mm
12:17 -11.3 °C -14.2 °C 34029.3 hPa SW 16.6 km/h 33.2 km/h 70 % 0 mm
12:22 -11.4 °C -14.4 °C 34029.3 hPa SW 18.2 km/h 31.9 km/h 69 % 0 mm
12:27 -11.4 °C -14.6 °C 33992.1 hPa SW 16.9 km/h 31.9 km/h 68 % 0 mm
12:32 -11.5 °C -14.7 °C 33992.1 hPa SW 14 km/h 22.5 km/h 68 % 0 mm
12:37 -11.5 °C -14.8 °C 33992.1 hPa WSW 12.7 km/h 22.5 km/h 67 % 0 mm
12:42 -11.6 °C -14.8 °C 33992.1 hPa WSW 10.3 km/h 19.6 km/h 67 % 0 mm
12:44 -11.6 °C -14.8 °C 33992.1 hPa SW 9.7 km/h 19.6 km/h 67 % 0 mm
12:49 -11.6 °C -14.9 °C 33992.1 hPa SW 13.5 km/h 39.4 km/h 67 % 0 mm
12:54 -11.6 °C -15 °C 33992.1 hPa SW 19.5 km/h 39.4 km/h 66 % 0 mm
12:59 -11.6 °C -15 °C 33992.1 hPa WSW 19.6 km/h 33.6 km/h 66 % 0 mm
13:04 -11.6 °C -15 °C 33992.1 hPa SW 17.5 km/h 41.2 km/h 66 % 0 mm
13:09 -11.6 °C -14.9 °C 33992.1 hPa SW 18.3 km/h 41.2 km/h 66 % 0 mm
13:14 -11.5 °C -14.9 °C 33992.1 hPa WSW 20.9 km/h 32.3 km/h 66 % 0 mm
13:19 -11.5 °C -14.9 °C 33992.1 hPa WSW 22.9 km/h 39.4 km/h 66 % 0 mm
13:24 -11.5 °C -14.9 °C 33992.1 hPa SW 17.9 km/h 39.4 km/h 66 % 0 mm
13:29 -11.6 °C -14.9 °C 33958.2 hPa SW 11.4 km/h 32.3 km/h 66 % 0 mm
13:35 -11.6 °C -15.1 °C 33958.2 hPa WSW 16.9 km/h 42.2 km/h 65 % 0 mm
13:40 -11.6 °C -15.1 °C 33958.2 hPa WSW 16.9 km/h 42.2 km/h 65 % 0 mm
13:45 -11.6 °C -15.1 °C 33958.2 hPa WSW 12.4 km/h 26.7 km/h 65 % 0 mm
13:50 -11.7 °C -15.3 °C 33958.2 hPa WSW 12.2 km/h 26.7 km/h 64 % 0 mm
13:55 -11.7 °C -15.4 °C 33958.2 hPa WSW 11.1 km/h 26.2 km/h 64 % 0 mm
14:00 -11.8 °C -15.4 °C 33958.2 hPa WSW 11.6 km/h 26.2 km/h 64 % 0 mm
14:05 -11.8 °C -15.4 °C 33958.2 hPa WSW 10.9 km/h 25.4 km/h 64 % 0 mm
14:10 -11.8 °C -15.4 °C 33958.2 hPa WSW 11.6 km/h 25.4 km/h 64 % 0 mm
14:15 -11.8 °C -15.4 °C 33958.2 hPa SW 13.7 km/h 22.5 km/h 64 % 0 mm
14:20 -11.8 °C -15.4 °C 33958.2 hPa SSW 12.7 km/h 22 km/h 64 % 0 mm
14:25 -11.8 °C -15.4 °C 33924.3 hPa SSW 12.2 km/h 33.6 km/h 64 % 0 mm
14:30 -11.8 °C -15.4 °C 33924.3 hPa SW 10.9 km/h 33.6 km/h 64 % 0 mm
14:35 -11.8 °C -15.4 °C 33924.3 hPa SW 9.8 km/h 27.7 km/h 64 % 0 mm
14:40 -11.8 °C -15.4 °C 33924.3 hPa SW 12.4 km/h 28.5 km/h 64 % 0 mm
14:45 -11.8 °C -15.4 °C 33924.3 hPa SW 16.1 km/h 39.9 km/h 64 % 0 mm
14:50 -11.8 °C -15.5 °C 33924.3 hPa SW 17.9 km/h 39.9 km/h 63 % 0 mm
14:55 -11.8 °C -15.5 °C 33924.3 hPa SW 17.1 km/h 34.1 km/h 63 % 0 mm
15:00 -11.8 °C -15.7 °C 33924.3 hPa SW 14 km/h 33.2 km/h 62 % 0 mm
15:05 -11.8 °C -15.7 °C 33924.3 hPa SW 14.8 km/h 31.9 km/h 62 % 0 mm
15:10 -11.7 °C -15.7 °C 33924.3 hPa SW 15.3 km/h 31.9 km/h 61 % 0 mm
15:15 -11.7 °C -15.7 °C 33924.3 hPa SSW 15.3 km/h 31.9 km/h 61 % 0 mm
15:20 -11.7 °C -15.9 °C 33924.3 hPa SSW 16.1 km/h 31.9 km/h 60 % 0 mm
15:25 -11.7 °C -16 °C 33958.2 hPa SW 16.9 km/h 41.7 km/h 59 % 0 mm
15:30 -11.7 °C -16 °C 33958.2 hPa SW 19.5 km/h 41.7 km/h 59 % 0 mm
15:35 -11.7 °C -16.1 °C 33958.2 hPa SW 16.6 km/h 30.7 km/h 58 % 0 mm
15:40 -11.6 °C -16.2 °C 33958.2 hPa WSW 14.2 km/h 26.2 km/h 57 % 0 mm
15:45 -11.6 °C -16.1 °C 33958.2 hPa SW 16.3 km/h 33.2 km/h 57 % 0 mm
15:50 -11.6 °C -16.2 °C 33958.2 hPa SW 16.9 km/h 34.1 km/h 57 % 0 mm
15:55 -11.6 °C -16.3 °C 33958.2 hPa SW 17.1 km/h 34.1 km/h 56 % 0 mm
16:00 -11.7 °C -16.3 °C 33958.2 hPa SW 16.9 km/h 31.4 km/h 56 % 0 mm
16:05 -11.7 °C -16.5 °C 33958.2 hPa SW 18.3 km/h 37 km/h 55 % 0 mm
16:10 -11.7 °C -16.5 °C 33992.1 hPa SW 18.2 km/h 37 km/h 55 % 0 mm
16:15 -11.7 °C -16.6 °C 33992.1 hPa SW 15.3 km/h 22.5 km/h 55 % 0 mm
16:20 -11.7 °C -16.6 °C 33992.1 hPa SW 14.2 km/h 27.2 km/h 55 % 0 mm
16:25 -11.8 °C -16.6 °C 33958.2 hPa SW 11.6 km/h 27.2 km/h 55 % 0 mm
16:30 -11.8 °C -16.7 °C 33958.2 hPa SSW 9.8 km/h 26.7 km/h 55 % 0 mm
16:35 -11.9 °C -16.7 °C 33958.2 hPa SW 11.9 km/h 26.7 km/h 55 % 0 mm
16:40 -11.9 °C -16.7 °C 33958.2 hPa SW 12.9 km/h 24.8 km/h 55 % 0 mm
16:45 -11.9 °C -16.6 °C 33958.2 hPa SW 11.1 km/h 20.9 km/h 56 % 0 mm
16:50 -11.9 °C -16.6 °C 33958.2 hPa WSW 9.7 km/h 20.9 km/h 56 % 0 mm
16:55 -12 °C -16.7 °C 33958.2 hPa WSW 7.7 km/h 18.7 km/h 56 % 0 mm
17:00 -12.1 °C -16.7 °C 33958.2 hPa SW 6.4 km/h 15 km/h 56 % 0 mm
17:05 -12.1 °C -16.7 °C 33958.2 hPa SW 9.3 km/h 16.3 km/h 56 % 0 mm
17:10 -12.1 °C -16.6 °C 33958.2 hPa SW 9 km/h 16.3 km/h 57 % 0 mm
17:15 -12.1 °C -16.6 °C 33958.2 hPa WSW 7.2 km/h 20.9 km/h 57 % 0 mm
17:20 -12.1 °C -16.6 °C 33958.2 hPa WSW 11.6 km/h 22 km/h 57 % 0 mm
17:25 -12.2 °C -16.7 °C 33992.1 hPa WSW 13.5 km/h 22 km/h 57 % 0 mm
17:30 -12.2 °C -16.6 °C 33992.1 hPa WSW 10.1 km/h 19.6 km/h 58 % 0 mm
17:35 -12.2 °C -16.6 °C 33992.1 hPa SW 10.1 km/h 20.9 km/h 58 % 0 mm
17:40 -12.2 °C -16.6 °C 33958.2 hPa SW 11.4 km/h 20.9 km/h 58 % 0 mm
17:46 -12.3 °C -16.5 °C 33958.2 hPa SW 8.5 km/h 16.9 km/h 59 % 0 mm
17:51 -12.3 °C -16.5 °C 33958.2 hPa SW 7.6 km/h 14.5 km/h 59 % 0 mm
17:56 -12.3 °C -16.5 °C 33958.2 hPa WSW 8.2 km/h 14.5 km/h 59 % 0 mm
18:01 -12.3 °C -16.4 °C 33958.2 hPa WSW 7.2 km/h 12.7 km/h 60 % 0 mm
18:06 -12.3 °C -16.4 °C 33958.2 hPa WSW 6.4 km/h 12.7 km/h 60 % 0 mm
18:11 -12.4 °C -16.5 °C 33992.1 hPa WSW 5.1 km/h 11.1 km/h 60 % 0 mm
18:16 -12.4 °C -16.3 °C 33992.1 hPa WSW 6.9 km/h 17.4 km/h 61 % 0 mm
18:21 -12.4 °C -16.4 °C 33992.1 hPa SW 8.2 km/h 17.4 km/h 61 % 0 mm
18:26 -12.4 °C -16.4 °C 33992.1 hPa WSW 8.2 km/h 22 km/h 61 % 0 mm
18:31 -12.4 °C -16.4 °C 33992.1 hPa SW 9.3 km/h 22 km/h 61 % 0 mm
18:36 -12.4 °C -16.4 °C 33992.1 hPa SW 6.8 km/h 12.7 km/h 61 % 0 mm
18:41 -12.4 °C -16.3 °C 33958.2 hPa SW 6.9 km/h 15.6 km/h 62 % 0 mm
18:46 -12.4 °C -16.3 °C 33958.2 hPa SW 6 km/h 15.6 km/h 62 % 0 mm
18:51 -12.5 °C -16.3 °C 33958.2 hPa SW 3.1 km/h 12.2 km/h 62 % 0 mm
18:56 -12.5 °C -16.3 °C 33958.2 hPa WSW 4.2 km/h 12.2 km/h 62 % 0 mm
19:01 -12.5 °C -16.3 °C 33958.2 hPa WSW 3.7 km/h 6.9 km/h 62 % 0 mm
19:06 -12.6 °C -16.4 °C 33958.2 hPa WSW 2.3 km/h 6.9 km/h 62 % 0 mm
19:11 -12.6 °C -16.4 °C 33958.2 hPa West 2.3 km/h 7.6 km/h 62 % 0 mm
19:16 -12.6 °C -16.4 °C 33958.2 hPa West 4.3 km/h 12.7 km/h 62 % 0 mm
19:21 -12.6 °C -16.4 °C 33958.2 hPa West 3.7 km/h 12.7 km/h 62 % 0 mm
19:26 -12.6 °C -16.4 °C 33958.2 hPa WSW 0.5 km/h 4.2 km/h 62 % 0 mm
19:31 -12.7 °C -16.4 °C 33958.2 hPa WNW 1 km/h 6.9 km/h 63 % 0 mm
19:42 -12.7 °C -16.4 °C 33958.2 hPa North 0.8 km/h   63 % 0 mm
19:47 -12.8 °C -16.4 °C 33958.2 hPa West 2.3 km/h 6.4 km/h 64 % 0 mm
19:52 -12.9 °C -16.5 °C 33958.2 hPa West 1.6 km/h 6.4 km/h 64 % 0 mm
19:57 -13 °C -16.6 °C 33924.3 hPa Calm   2.3 km/h 64 % 0 mm
20:02 -13.1 °C -16.5 °C 33924.3 hPa Calm     65 % 0 mm
20:07 -13.1 °C -16.6 °C 33924.3 hPa Calm     65 % 0 mm
20:12 -13.2 °C -16.6 °C 33958.2 hPa Calm     66 % 0 mm
20:17 -13.2 °C -16.6 °C 33958.2 hPa Calm     66 % 0 mm
20:22 -13.3 °C -16.6 °C 33958.2 hPa Calm     67 % 0 mm
20:27 -13.4 °C -16.5 °C 33958.2 hPa WNW 0.3 km/h 4.2 km/h 68 % 0 mm
20:32 -13.4 °C -16.5 °C 33958.2 hPa WNW 0.3 km/h 4.2 km/h 68 % 0 mm
20:37 -13.4 °C -16.5 °C 33958.2 hPa Calm     68 % 0 mm
20:42 -13.5 °C -16.4 °C 33958.2 hPa Calm     69 % 0 mm
20:47 -13.5 °C -16.4 °C 33958.2 hPa Calm     69 % 0 mm
20:52 -13.6 °C -16.4 °C 33958.2 hPa Calm   4.2 km/h 70 % 0 mm
20:57 -13.6 °C -16.4 °C 33992.1 hPa Calm   4.2 km/h 70 % 0 mm
21:02 -13.6 °C -16.3 °C 33992.1 hPa Calm     71 % 0 mm
21:07 -13.7 °C -16.4 °C 33992.1 hPa Calm     71 % 0 mm
21:12 -13.7 °C -16.4 °C 33924.3 hPa Calm     71 % 0 mm
21:17 -13.7 °C -16.3 °C 33924.3 hPa Calm     72 % 7.62 mm
21:22 -13.8 °C -16.3 °C 33924.3 hPa Calm     73 % 7.62 mm
21:27 -13.8 °C -16.3 °C 33958.2 hPa NNE 1.6 km/h 9.8 km/h 73 % 7.62 mm
21:32 -13.8 °C -16.2 °C 33958.2 hPa West 4.2 km/h 11.1 km/h 74 % 7.62 mm
21:37 -13.8 °C -16.2 °C 33958.2 hPa West 5.1 km/h 11.1 km/h 75 % 7.62 mm
21:42 -13.8 °C -16.2 °C 33958.2 hPa West 2.9 km/h 11.1 km/h 75 % 7.62 mm
21:47 -13.8 °C -16 °C 33958.2 hPa West 2.3 km/h 9.3 km/h 76 % 7.62 mm
21:52 -13.8 °C -16 °C 33958.2 hPa WSW 2.1 km/h 9.3 km/h 76 % 7.62 mm
21:57 -13.8 °C -15.9 °C 33958.2 hPa SSW 1 km/h 5.6 km/h 77 % 12.7 mm
22:02 -13.8 °C -15.8 °C 33958.2 hPa South 0.8 km/h 5.6 km/h 78 % 12.7 mm
22:07 -13.8 °C -15.8 °C 33958.2 hPa Calm     78 % 20.32 mm
22:12 -13.8 °C -15.7 °C 33958.2 hPa Calm     79 % 25.4 mm
22:17 -13.8 °C -15.7 °C 33958.2 hPa NNW 0.3 km/h 5.6 km/h 79 % 25.4 mm
22:22 -13.8 °C -15.6 °C 33958.2 hPa NNW 0.3 km/h 5.6 km/h 80 % 25.4 mm
22:27 -13.8 °C -15.5 °C 33958.2 hPa Calm     81 % 25.4 mm
22:32 -13.8 °C -15.5 °C 33958.2 hPa Calm   3.4 km/h 81 % 33.02 mm
22:37 -13.8 °C -15.4 °C 33958.2 hPa Calm   3.4 km/h 82 % 33.02 mm
22:42 -13.8 °C -15.4 °C 33924.3 hPa Calm     82 % 33.02 mm
22:47 -13.8 °C -15.3 °C 33924.3 hPa Calm     83 % 33.02 mm
22:52 -13.8 °C -15.3 °C 33924.3 hPa Calm     83 % 33.02 mm
22:57 -13.8 °C -15.3 °C 33958.2 hPa Calm     83 % 33.02 mm
23:02 -13.9 °C -15.3 °C 33958.2 hPa Calm     84 % 33.02 mm
23:07 -13.9 °C -15.3 °C 33958.2 hPa Calm     84 % 33.02 mm
23:12 -13.9 °C -15.3 °C 33958.2 hPa Calm     84 % 25.4 mm
23:17 -13.9 °C -15.3 °C 33958.2 hPa Calm   4.2 km/h 84 % 25.4 mm
23:18 -13.9 °C -15.3 °C 33958.2 hPa WNW 0.3 km/h 4.2 km/h 84 % 25.4 mm
23:23 -13.9 °C -15.2 °C 33958.2 hPa WNW 0.8 km/h 5.6 km/h 85 % 25.4 mm
23:28 -13.9 °C -15.2 °C 33958.2 hPa WNW 0.5 km/h 5.6 km/h 85 % 25.4 mm
23:33 -13.9 °C -15.2 °C 33958.2 hPa SE 0.8 km/h 6.4 km/h 85 % 20.32 mm
23:38 -13.9 °C -15.2 °C 33958.2 hPa South 0.8 km/h 6.4 km/h 85 % 20.32 mm
23:43 -13.9 °C -15.1 °C 33924.3 hPa SW 1.8 km/h 6.4 km/h 86 % 20.32 mm
23:48 -13.9 °C -15.2 °C 33924.3 hPa WSW 2.6 km/h 6.9 km/h 86 % 20.32 mm
23:53 -13.9 °C -15.2 °C 33924.3 hPa West 1 km/h 6.9 km/h 86 % 20.32 mm
23:58 -13.9 °C -15.1 °C 33924.3 hPa Calm     87 % 12.7 mm
Vremenska postaja Senovo
Podatki zbrani iz Weather Underground - 3 mb

Script developed by  Jim McMurry - jmcmurry@mwt.net Adapted for the template by  Wim van der Kuil - Leuven-Template.eu

Vremenski podatki so objavljeni na:

European Weather Network

WeatherCloud

Weather Underground

AWEKAS

HAMweather, WeatherForYou, PWS Weather

MapView

Geostik

Slovenia weather network

Oprema, ki se uporablja:

Vremenski program
Cumulus

Vremenski server
Asus

Cumulus

Asus